This is the latest recevied weather packets stored in our database for station/object EA3KZ-1. If no packets are shown the sender has not sent any weather packets the latest 10 day(s).
| Time | Temp. | Humidity | Pressure | Rain* | Wind** | Luminosity | Snow |
|---|---|---|---|---|---|---|---|
| 1777890639 | 20.56° C | 63% | 1007.6 hPa | 0 mm | - | - | - |
| 1777890037 | 20° C | 64% | 1007.7 hPa | 0 mm | - | - | - |
| 1777889434 | 20° C | 64% | 1007.7 hPa | 0 mm | - | - | - |
| 1777888832 | 20.56° C | 64% | 1007.7 hPa | 0 mm | - | - | - |
| 1777888229 | 20.56° C | 62% | 1007.4 hPa | 0 mm | - | - | - |
| 1777887626 | 20° C | 64% | 1007.3 hPa | 0 mm | - | - | - |
| 1777887024 | 20° C | 64% | 1007.7 hPa | 0 mm | - | - | - |
| 1777886421 | 19.44° C | 68% | 1007.7 hPa | 0 mm | - | - | - |
| 1777885818 | 18.89° C | 70% | 1007.7 hPa | 0 mm | - | - | - |
| 1777885215 | 18.89° C | 69% | 1007.9 hPa | 0 mm | - | - | - |
| 1777884672 | 18.89° C | 68% | 1007.9 hPa | 0 mm | - | - | - |
| 1777884070 | 18.89° C | 67% | 1008 hPa | 0 mm | - | - | - |
| 1777883467 | 18.89° C | 66% | 1008 hPa | 0 mm | - | - | - |
| 1777882865 | 18.89° C | 71% | 1007.9 hPa | 0 mm | - | - | - |
| 1777882262 | 18.33° C | 72% | 1008.1 hPa | 0 mm | - | - | - |
| 1777881660 | 18.89° C | 71% | 1008.2 hPa | 0 mm | - | - | - |
| 1777881057 | 17.78° C | 72% | 1008.1 hPa | 0 mm | - | - | - |
| 1777880454 | 17.78° C | 74% | 1008.1 hPa | 0 mm | - | - | - |
| 1777879852 | 17.22° C | 77% | 1008.4 hPa | 0 mm | - | - | - |
| 1777879249 | 16.67° C | 79% | 1008.3 hPa | 0 mm | - | - | - |
| 1777878647 | 16.11° C | 81% | 1008.5 hPa | 0 mm | - | - | - |
| 1777878044 | 15.56° C | 84% | 1008.4 hPa | 0 mm | - | - | - |
| 1777877441 | 15° C | 84% | 1008.6 hPa | 0 mm | - | - | - |
| 1777876839 | 15.56° C | 82% | 1008.3 hPa | 0 mm | - | - | - |
| 1777876236 | 15.56° C | 81% | 1008.2 hPa | 0 mm | - | - | - |
* Rain latest hour (hover to see other rain measurements)
** Current wind speed in m/s (hover to see current wind gust speed)